Main page
METAR-TAF:

METAR-TAF

Airports :

Gorgan Airport

Gorgan, Iran

latitude: 36-49N, longitude: 054-28E, elevation: 155 m

Current weather observation

The report was made 15 minutes ago, at 21:00 UTC
Calm wind
Temperature 6°C
Humidity 93%
Pressure 1020 hPa
Visibility 10 km or more
Broken clouds at a height of 9000 ft

METAR: OING 102100Z 00000KT 9999 BKN090 06/05 Q1020

Time: 00:45 (21:15 UTC)


TAF: missing

Weather observations and forecasts of more than 4000 airports (METAR and TAF reports).

The available stations are represented by yellow and red dots on the map.

Hover mouse over dot to see the name of the station.

Then click to see weather observations and forecasts.

To change the map : click on the green buttons with a black cross to zoom in, on the green button with a dash to zoom out, or on the green arrows for adjacent maps.


METAR-TAF: